Time;durP1;ratioP1;P1;durP2;ratioP2;P2;SDS_P1;SDS_P2;PMS_P1;PMS_P2;Temp;Humidity;BMP_temperature;BMP_pressure;BME280_temperature;BME280_humidity;BME280_pressure;Samples;Min_cycle;Max_cycle;Signal;HPM_P1;HPM_P2
2021/06/17 00:02:59;;;;;;;12.23;8.38;;;21.00;99.90;;;;;;5077145;28;20039;-69
2021/06/17 00:06:04;;;;;;;11.15;8.50;;;21.00;99.90;;;;;;5069561;28;20052;-68
2021/06/17 00:09:08;;;;;;;12.07;8.00;;;20.90;99.90;;;;;;5069538;28;20047;-69
2021/06/17 00:12:16;;;;;;;13.70;9.57;;;20.90;99.90;;;;;;5071828;28;20052;-69
2021/06/17 00:15:23;;;;;;;8.85;7.93;;;20.90;99.90;;;;;;5072305;28;20278;-68
2021/06/17 00:18:29;;;;;;;10.70;8.85;;;20.90;99.90;;;;;;5069428;28;20051;-69
2021/06/17 00:21:33;;;;;;;12.95;9.55;;;20.90;99.90;;;;;;5069608;28;20047;-69
2021/06/17 00:24:38;;;;;;;9.18;8.00;;;20.90;99.90;;;;;;5069065;28;20052;-69
2021/06/17 00:27:43;;;;;;;13.77;8.80;;;20.90;99.90;;;;;;5070001;28;20036;-68
2021/06/17 00:30:47;;;;;;;18.17;8.60;;;20.80;99.90;;;;;;5083992;28;20066;-68
2021/06/17 00:33:51;;;;;;;10.52;8.45;;;20.60;99.90;;;;;;5085174;28;20126;-68
2021/06/17 00:36:54;;;;;;;12.38;8.25;;;20.50;99.90;;;;;;5069629;28;20063;-69
2021/06/17 00:39:59;;;;;;;10.35;8.13;;;20.40;99.90;;;;;;5067878;28;20047;-69
2021/06/17 00:43:04;;;;;;;9.00;7.65;;;20.40;99.90;;;;;;5068992;28;20063;-69
2021/06/17 00:46:08;;;;;;;10.95;8.40;;;20.30;99.90;;;;;;5068980;28;20052;-68
2021/06/17 00:49:12;;;;;;;9.43;7.72;;;20.20;99.90;;;;;;5068897;28;20051;-68
2021/06/17 00:52:16;;;;;;;14.85;8.63;;;20.20;99.90;;;;;;5079542;28;20422;-69
2021/06/17 00:55:20;;;;;;;12.65;8.43;;;20.20;99.90;;;;;;5087142;28;20059;-68
2021/06/17 00:58:25;;;;;;;12.73;7.90;;;20.10;99.90;;;;;;5083905;28;20051;-68
2021/06/17 01:01:29;;;;;;;11.05;7.90;;;20.10;99.90;;;;;;5077534;28;20051;-69
2021/06/17 01:04:34;;;;;;;11.45;8.02;;;20.10;99.90;;;;;;5074690;28;20043;-69
2021/06/17 01:07:47;;;;;;;10.00;8.02;;;20.10;99.90;;;;;;5069803;28;20071;-69
2021/06/17 01:11:26;;;;;;;17.05;7.95;;;20.10;99.90;;;;;;5071837;28;20040;-68
2021/06/17 01:14:37;;;;;;;12.30;8.25;;;20.10;99.90;;;;;;5078478;28;20525;-68
2021/06/17 01:17:48;;;;;;;13.70;8.52;;;20.00;99.90;;;;;;5089359;28;20043;-68
2021/06/17 01:20:55;;;;;;;12.98;7.53;;;19.90;99.90;;;;;;5068052;28;20063;-69
2021/06/17 01:24:23;;;;;;;13.30;7.47;;;19.90;99.90;;;;;;5077549;28;20063;-68
2021/06/17 01:27:58;;;;;;;11.98;7.88;;;19.60;99.90;;;;;;5078241;28;20043;-69
2021/06/17 01:31:09;;;;;;;10.60;8.48;;;19.60;99.90;;;;;;5087552;28;20047;-68
2021/06/17 01:34:16;;;;;;;11.35;8.15;;;19.60;99.90;;;;;;5083709;28;20600;-69
2021/06/17 01:37:24;;;;;;;12.63;9.38;;;19.60;99.90;;;;;;5082636;28;20434;-69
2021/06/17 01:40:30;;;;;;;11.68;8.98;;;19.50;99.90;;;;;;5081497;28;20047;-69
2021/06/17 01:43:36;;;;;;;13.23;9.07;;;19.50;99.90;;;;;;5073150;28;20629;-69
2021/06/17 01:46:42;;;;;;;13.23;9.55;;;19.40;99.90;;;;;;5090974;28;20126;-69
2021/06/17 01:49:47;;;;;;;11.15;9.48;;;19.40;99.90;;;;;;5091099;28;20039;-68
2021/06/17 01:52:53;;;;;;;13.18;10.55;;;19.40;99.90;;;;;;5087179;28;20063;-68
2021/06/17 01:55:59;;;;;;;11.32;9.18;;;19.40;99.90;;;;;;5084158;28;20399;-68
2021/06/17 01:59:04;;;;;;;13.82;9.65;;;19.40;99.90;;;;;;5087585;28;20043;-68
2021/06/17 02:02:10;;;;;;;9.52;8.43;;;19.40;99.90;;;;;;5088521;28;20031;-68
2021/06/17 02:05:15;;;;;;;12.32;9.55;;;19.40;99.90;;;;;;5087842;28;20736;-68
2021/06/17 02:08:21;;;;;;;14.95;8.45;;;19.40;99.90;;;;;;5083904;28;20043;-68
2021/06/17 02:11:28;;;;;;;17.42;9.75;;;19.30;99.90;;;;;;5080329;28;20055;-68
2021/06/17 02:14:33;;;;;;;15.63;9.40;;;19.20;99.90;;;;;;5087040;28;20509;-68
2021/06/17 02:17:41;;;;;;;15.13;8.60;;;19.10;99.90;;;;;;5085708;28;20039;-68
2021/06/17 02:20:45;;;;;;;14.02;9.00;;;19.00;99.90;;;;;;5076731;28;20051;-69
2021/06/17 02:23:55;;;;;;;13.07;9.05;;;19.10;99.90;;;;;;5090658;28;20032;-68
2021/06/17 02:27:05;;;;;;;13.05;8.80;;;19.10;99.90;;;;;;5088253;28;20043;-68
2021/06/17 02:30:12;;;;;;;12.43;9.32;;;19.00;99.90;;;;;;5075025;28;20407;-68
2021/06/17 02:33:19;;;;;;;11.68;9.32;;;19.00;99.90;;;;;;5090259;28;20039;-68
2021/06/17 02:36:26;;;;;;;10.55;8.43;;;19.00;99.90;;;;;;5074252;28;20205;-68
2021/06/17 02:39:30;;;;;;;15.20;9.13;;;19.00;99.90;;;;;;5083251;28;20502;-69
2021/06/17 02:42:36;;;;;;;12.45;9.23;;;19.00;99.90;;;;;;5091657;28;20387;-69
2021/06/17 02:45:42;;;;;;;13.52;9.88;;;19.00;99.90;;;;;;5090480;28;20042;-69
2021/06/17 02:48:46;;;;;;;11.80;9.38;;;19.00;99.90;;;;;;5081967;28;20047;-68
2021/06/17 02:51:51;;;;;;;11.45;9.90;;;19.00;99.90;;;;;;5071341;28;20052;-68
2021/06/17 02:54:55;;;;;;;14.85;10.48;;;19.00;99.90;;;;;;5071321;28;20039;-68
2021/06/17 02:58:23;;;;;;;12.68;9.52;;;19.10;99.90;;;;;;5071406;28;20047;-69
2021/06/17 03:01:54;;;;;;;15.60;9.70;;;19.10;99.90;;;;;;5070356;28;20059;-68
2021/06/17 03:05:04;;;;;;;13.20;9.27;;;19.10;99.90;;;;;;5084677;28;20036;-69
2021/06/17 03:08:17;;;;;;;14.30;9.43;;;19.20;99.90;;;;;;5071064;28;20506;-68
2021/06/17 03:11:22;;;;;;;16.75;11.68;;;19.20;99.90;;;;;;5082805;28;20051;-68
2021/06/17 03:14:35;;;;;;;13.32;8.98;;;18.90;99.90;;;;;;5090626;28;20236;-68
2021/06/17 03:17:47;;;;;;;13.82;10.60;;;18.70;99.90;;;;;;5071162;28;20048;-68
2021/06/17 03:20:52;;;;;;;16.92;10.52;;;18.50;99.90;;;;;;5069579;28;20499;-68
2021/06/17 03:23:58;;;;;;;14.20;9.82;;;18.50;99.90;;;;;;5082729;28;20490;-68
2021/06/17 03:27:04;;;;;;;14.15;9.82;;;18.50;99.90;;;;;;5091270;28;20047;-68
2021/06/17 03:30:09;;;;;;;13.98;9.32;;;18.50;99.90;;;;;;5084571;28;20510;-68
2021/06/17 03:33:17;;;;;;;15.82;11.95;;;18.50;99.90;;;;;;5073827;28;20040;-68
2021/06/17 03:36:23;;;;;;;17.83;11.50;;;18.50;99.90;;;;;;5070206;28;20043;-68
2021/06/17 03:39:28;;;;;;;16.15;10.13;;;18.40;99.90;;;;;;5069450;28;20075;-68
2021/06/17 03:42:35;;;;;;;16.88;11.10;;;18.30;99.90;;;;;;5078055;28;20043;-69
2021/06/17 03:45:41;;;;;;;16.85;10.85;;;18.30;99.90;;;;;;5089138;28;20039;-69
2021/06/17 03:48:46;;;;;;;21.05;11.00;;;18.40;99.90;;;;;;5070446;28;20040;-69
2021/06/17 03:51:52;;;;;;;19.52;10.95;;;18.40;99.90;;;;;;5073640;28;20265;-69
2021/06/17 03:54:57;;;;;;;16.92;10.45;;;18.50;99.90;;;;;;5072529;28;20043;-69
2021/06/17 03:58:01;;;;;;;16.73;10.60;;;18.60;99.90;;;;;;5070414;28;20297;-68
2021/06/17 04:01:08;;;;;;;18.77;10.77;;;18.70;99.90;;;;;;5072358;28;20043;-69
2021/06/17 04:04:12;;;;;;;17.83;11.25;;;18.80;99.90;;;;;;5071953;28;20040;-68
2021/06/17 04:07:23;;;;;;;13.27;10.63;;;18.70;99.90;;;;;;5090624;28;20383;-68
2021/06/17 04:10:29;;;;;;;18.95;10.40;;;18.10;99.90;;;;;;5089539;28;20043;-69
2021/06/17 04:13:37;;;;;;;13.57;10.85;;;18.10;99.90;;;;;;5085250;28;20444;-68
2021/06/17 04:16:41;;;;;;;16.77;10.27;;;18.00;99.90;;;;;;5090120;28;20070;-68
2021/06/17 04:19:47;;;;;;;14.57;11.63;;;18.00;99.90;;;;;;5088619;28;20510;-68
2021/06/17 04:22:55;;;;;;;13.48;10.25;;;18.10;99.90;;;;;;5080292;28;20450;-68
2021/06/17 04:26:01;;;;;;;15.23;10.88;;;18.10;99.90;;;;;;5079676;28;20051;-68
2021/06/17 04:29:06;;;;;;;18.35;11.13;;;18.30;99.90;;;;;;5089640;28;20039;-69
2021/06/17 04:32:12;;;;;;;15.80;10.80;;;19.20;99.90;;;;;;5083789;28;20050;-69
2021/06/17 04:35:20;;;;;;;16.75;10.68;;;20.30;99.90;;;;;;5088475;28;20051;-69
2021/06/17 04:38:24;;;;;;;17.35;10.48;;;21.40;99.90;;;;;;5068862;28;20068;-69
2021/06/17 04:41:29;;;;;;;21.02;12.13;;;22.50;99.90;;;;;;5081562;28;20051;-68
2021/06/17 04:44:38;;;;;;;25.73;11.93;;;23.50;99.90;;;;;;5084021;28;20400;-69
2021/06/17 04:47:49;;;;;;;20.23;10.95;;;24.70;99.90;;;;;;5089458;28;20549;-69
2021/06/17 04:50:54;;;;;;;17.67;10.27;;;25.70;99.90;;;;;;5084975;28;20047;-68
2021/06/17 04:53:58;;;;;;;19.05;9.98;;;26.30;99.90;;;;;;5081625;28;20047;-69
2021/06/17 04:57:03;;;;;;;13.02;8.80;;;26.90;99.90;;;;;;5078870;28;20770;-69
2021/06/17 05:00:09;;;;;;;25.88;9.38;;;27.30;99.90;;;;;;5086102;28;20051;-69
2021/06/17 05:03:15;;;;;;;13.57;8.57;;;27.90;99.90;;;;;;5080580;28;20039;-69
2021/06/17 05:06:20;;;;;;;22.88;8.55;;;28.10;99.90;;;;;;5073089;28;20051;-68
2021/06/17 05:12:47;;;;;;;12.20;8.35;;;24.30;99.90;;;;;;5075713;28;20502;-67
2021/06/17 05:15:53;;;;;;;9.55;8.07;;;22.40;99.90;;;;;;5077003;28;20062;-69
2021/06/17 05:18:57;;;;;;;10.32;7.45;;;23.50;99.90;;;;;;5090732;28;20039;-68
2021/06/17 05:22:03;;;;;;;10.10;7.60;;;24.40;99.90;;;;;;5089954;28;20474;-69
2021/06/17 05:25:08;;;;;;;11.77;7.72;;;26.40;99.90;;;;;;5088177;28;20083;-69
2021/06/17 05:28:14;;;;;;;10.48;6.68;;;27.80;99.90;;;;;;5092345;28;20040;-69
2021/06/17 05:31:20;;;;;;;12.05;8.02;;;28.30;99.90;;;;;;5083916;28;20402;-69
2021/06/17 05:34:24;;;;;;;10.50;7.50;;;28.20;99.90;;;;;;5088023;28;20387;-69
2021/06/17 05:37:28;;;;;;;9.55;6.47;;;28.70;99.90;;;;;;5081044;28;20063;-70
2021/06/17 05:40:33;;;;;;;9.13;6.47;;;29.10;99.40;;;;;;5088604;28;20043;-69
2021/06/17 05:43:38;;;;;;;7.75;6.05;;;29.40;99.00;;;;;;5088298;28;20076;-69
2021/06/17 05:46:42;;;;;;;9.43;6.88;;;30.10;98.40;;;;;;5089254;28;20378;-69
2021/06/17 05:49:45;;;;;;;10.00;7.05;;;30.30;97.70;;;;;;5087883;28;20043;-68
2021/06/17 05:52:49;;;;;;;7.97;6.30;;;30.30;97.40;;;;;;5087042;28;20043;-69
2021/06/17 05:55:54;;;;;;;15.25;7.00;;;30.40;97.70;;;;;;5089676;28;20068;-69
2021/06/17 05:59:00;;;;;;;10.63;6.25;;;31.00;97.00;;;;;;5076286;28;20035;-68
2021/06/17 06:02:06;;;;;;;10.23;6.38;;;31.00;96.60;;;;;;5085671;28;20378;-68
2021/06/17 06:05:10;;;;;;;9.15;6.80;;;31.00;96.10;;;;;;5084180;28;20035;-69
2021/06/17 06:08:14;;;;;;;12.80;7.80;;;31.20;95.90;;;;;;5073225;28;20636;-68
2021/06/17 06:11:19;;;;;;;9.65;6.82;;;31.60;95.30;;;;;;5090505;28;20051;-69
2021/06/17 06:14:24;;;;;;;9.32;6.60;;;31.10;94.80;;;;;;5084219;28;20114;-68
2021/06/17 06:17:28;;;;;;;8.52;6.00;;;31.50;94.90;;;;;;5091217;28;20051;-70
2021/06/17 06:20:33;;;;;;;7.45;5.82;;;31.80;94.60;;;;;;5091705;28;20067;-68
2021/06/17 06:23:37;;;;;;;10.27;5.45;;;32.10;94.10;;;;;;5083665;28;20382;-68
2021/06/17 06:26:41;;;;;;;6.43;5.03;;;32.20;94.10;;;;;;5079465;28;20039;-68
2021/06/17 06:29:45;;;;;;;7.85;5.35;;;32.80;93.10;;;;;;5088969;28;20064;-69
2021/06/17 06:32:50;;;;;;;8.60;5.30;;;33.00;92.60;;;;;;5077411;28;20085;-69
2021/06/17 06:35:54;;;;;;;15.15;6.53;;;32.40;92.60;;;;;;5079504;28;20047;-69
2021/06/17 06:38:59;;;;;;;11.35;7.28;;;30.10;94.50;;;;;;5091228;28;20058;-69
2021/06/17 06:42:04;;;;;;;14.75;7.93;;;28.30;96.10;;;;;;5079671;28;20052;-67
2021/06/17 06:45:09;;;;;;;13.65;8.85;;;26.50;98.70;;;;;;5088598;28;20048;-68
2021/06/17 06:48:13;;;;;;;10.25;8.45;;;25.80;99.90;;;;;;5089519;28;20051;-67
2021/06/17 06:51:18;;;;;;;11.63;9.05;;;25.50;99.90;;;;;;5083145;28;20080;-68
2021/06/17 06:54:21;;;;;;;14.30;8.40;;;25.50;99.90;;;;;;5087578;28;20494;-67
2021/06/17 06:57:26;;;;;;;13.50;9.15;;;25.50;99.90;;;;;;5089918;28;20566;-67
2021/06/17 07:00:32;;;;;;;13.20;9.20;;;26.50;99.90;;;;;;5086524;28;20043;-68
2021/06/17 07:03:36;;;;;;;10.48;8.60;;;26.10;99.90;;;;;;5085916;28;20587;-68
2021/06/17 07:06:42;;;;;;;14.48;8.15;;;25.70;99.90;;;;;;5091275;28;20055;-67
2021/06/17 07:09:46;;;;;;;15.07;8.23;;;25.30;99.90;;;;;;5089786;28;20379;-68
2021/06/17 07:12:50;;;;;;;11.13;7.10;;;25.50;99.90;;;;;;5087365;28;20090;-68
2021/06/17 07:15:58;;;;;;;9.30;6.45;;;26.60;99.80;;;;;;5090459;28;20039;-68
2021/06/17 07:19:05;;;;;;;6.93;5.93;;;29.10;98.10;;;;;;5088449;28;20039;-68
2021/06/17 07:22:10;;;;;;;10.00;6.40;;;31.00;95.50;;;;;;5082253;28;20051;-68
2021/06/17 07:25:14;;;;;;;9.65;5.32;;;30.50;94.90;;;;;;5083473;28;20059;-68
2021/06/17 07:28:18;;;;;;;8.88;5.50;;;31.60;94.60;;;;;;5080853;28;20047;-68
2021/06/17 07:31:24;;;;;;;9.50;5.45;;;32.60;93.50;;;;;;5081681;28;20050;-68
2021/06/17 07:34:28;;;;;;;7.82;4.93;;;32.90;93.00;;;;;;5088689;28;20051;-68
2021/06/17 07:37:32;;;;;;;5.30;4.80;;;33.30;92.30;;;;;;5087357;28;20540;-68
2021/06/17 07:40:40;;;;;;;7.43;5.10;;;31.70;93.30;;;;;;5072491;28;20044;-68
2021/06/17 07:43:45;;;;;;;7.50;4.93;;;32.50;93.40;;;;;;5081512;28;20052;-69
2021/06/17 07:46:51;;;;;;;5.82;4.43;;;34.10;92.10;;;;;;5087742;28;20058;-68
2021/06/17 07:49:55;;;;;;;6.55;4.90;;;33.40;92.30;;;;;;5077997;28;20039;-68
2021/06/17 07:52:59;;;;;;;8.02;4.60;;;34.60;91.30;;;;;;5079810;28;20040;-68
2021/06/17 07:56:03;;;;;;;7.40;4.95;;;35.60;90.60;;;;;;5090686;28;20035;-68
2021/06/17 07:59:07;;;;;;;5.32;4.38;;;34.30;91.20;;;;;;5083508;28;20039;-68
2021/06/17 08:02:13;;;;;;;7.28;4.97;;;35.90;88.90;;;;;;5077352;28;20771;-69
2021/06/17 08:05:17;;;;;;;6.63;4.47;;;34.30;89.70;;;;;;5088642;28;20047;-69
2021/06/17 08:08:22;;;;;;;12.73;5.18;;;35.50;88.80;;;;;;5088001;28;20047;-69
2021/06/17 08:11:27;;;;;;;7.57;4.57;;;35.20;90.10;;;;;;5088384;28;20391;-68
2021/06/17 08:14:31;;;;;;;6.40;4.82;;;35.90;88.50;;;;;;5088651;28;20481;-69
2021/06/17 08:17:35;;;;;;;14.18;5.25;;;36.20;88.10;;;;;;5081276;28;20051;-69
2021/06/17 08:20:42;;;;;;;7.85;5.65;;;35.50;88.70;;;;;;5080061;28;20391;-69
2021/06/17 08:23:47;;;;;;;11.23;5.53;;;35.30;87.50;;;;;;5087192;28;20043;-68
2021/06/17 08:26:51;;;;;;;11.40;6.18;;;35.20;87.50;;;;;;5084601;28;20047;-68
2021/06/17 08:29:55;;;;;;;11.95;7.13;;;32.90;90.80;;;;;;5087150;28;20059;-68
2021/06/17 08:32:59;;;;;;;8.82;6.35;;;31.60;91.40;;;;;;5085126;28;20049;-69
2021/06/17 08:36:08;;;;;;;8.52;5.80;;;32.90;90.80;;;;;;5087929;28;20043;-69
2021/06/17 08:39:12;;;;;;;9.55;5.25;;;33.70;90.70;;;;;;5084701;28;20043;-70
2021/06/17 08:42:16;;;;;;;6.40;5.40;;;33.50;90.20;;;;;;5083012;28;20103;-69
2021/06/17 08:45:21;;;;;;;6.65;4.80;;;35.30;88.50;;;;;;5088281;28;20039;-69
2021/06/17 08:48:26;;;;;;;8.00;4.53;;;37.60;85.20;;;;;;5085052;28;20418;-70
2021/06/17 08:51:33;;;;;;;8.05;4.80;;;39.30;83.10;;;;;;5082023;28;20051;-70
2021/06/17 08:54:36;;;;;;;10.50;4.78;;;40.60;79.40;;;;;;5088685;28;20055;-67
2021/06/17 08:57:41;;;;;;;7.28;4.40;;;41.80;77.20;;;;;;5086604;28;20051;-69
2021/06/17 09:00:47;;;;;;;4.90;4.32;;;42.40;74.10;;;;;;5085424;28;20071;-69
2021/06/17 09:03:52;;;;;;;8.00;4.07;;;42.90;74.30;;;;;;5086289;28;20043;-66
2021/06/17 09:07:32;;;;;;;6.10;4.53;;;41.60;72.10;;;;;;5086435;28;20035;-68
2021/06/17 09:10:41;;;;;;;6.38;4.47;;;40.70;74.20;;;;;;5085534;28;20047;-69
2021/06/17 09:13:45;;;;;;;7.85;4.43;;;40.20;74.70;;;;;;5089318;28;20055;-68
2021/06/17 09:17:08;;;;;;;6.43;4.57;;;41.20;73.20;;;;;;5084824;28;20043;-68
2021/06/17 09:20:13;;;;;;;5.50;4.35;;;40.80;71.60;;;;;;5083395;28;20397;-66
2021/06/17 09:23:21;;;;;;;10.15;5.93;;;42.50;72.50;;;;;;5085681;28;20054;-65
2021/06/17 09:26:29;;;;;;;8.57;4.82;;;39.10;72.90;;;;;;5087505;28;20070;-68
2021/06/17 09:29:33;;;;;;;8.40;5.00;;;39.40;73.40;;;;;;5080111;28;20043;-65
2021/06/17 09:32:41;;;;;;;7.68;4.90;;;40.40;71.40;;;;;;5088345;28;20054;-66
2021/06/17 09:35:58;;;;;;;5.82;4.57;;;41.00;72.20;;;;;;5087282;28;20046;-68
2021/06/17 09:39:18;;;;;;;6.78;4.60;;;39.40;71.70;;;;;;5084931;28;20051;-68
2021/06/17 09:42:31;;;;;;;7.57;4.78;;;41.20;72.40;;;;;;5084629;28;20039;-67
2021/06/17 09:45:36;;;;;;;6.07;4.47;;;41.20;69.70;;;;;;5081002;28;20055;-69
2021/06/17 09:48:46;;;;;;;7.10;4.28;;;38.80;73.30;;;;;;5082104;28;20386;-69
2021/06/17 09:51:52;;;;;;;5.15;4.63;;;40.00;74.30;;;;;;5092657;28;20051;-68
2021/06/17 09:54:57;;;;;;;7.63;4.60;;;38.00;74.80;;;;;;5086744;28;20382;-67
2021/06/17 09:58:01;;;;;;;5.95;4.65;;;36.80;75.50;;;;;;5087686;28;20051;-68
2021/06/17 10:01:11;;;;;;;5.95;5.10;;;37.70;75.30;;;;;;5087835;28;20058;-67
2021/06/17 10:04:17;;;;;;;5.30;4.80;;;37.00;74.60;;;;;;5080646;28;20051;-67
2021/06/17 10:07:22;;;;;;;5.93;4.47;;;39.60;73.50;;;;;;5091982;28;20043;-68
2021/06/17 10:10:30;;;;;;;4.82;4.35;;;40.60;71.80;;;;;;5092558;28;20052;-68
2021/06/17 10:13:37;;;;;;;5.50;4.40;;;43.00;70.00;;;;;;5092813;28;20043;-67
2021/06/17 10:16:42;;;;;;;4.70;3.85;;;44.10;67.90;;;;;;5080315;28;20055;-69
2021/06/17 10:19:48;;;;;;;5.40;3.90;;;45.30;67.00;;;;;;5083729;28;20047;-68
2021/06/17 10:22:56;;;;;;;4.38;3.97;;;45.30;65.40;;;;;;5081530;28;20059;-68
2021/06/17 10:26:05;;;;;;;7.95;4.00;;;46.40;64.40;;;;;;5080696;28;20043;-69
2021/06/17 10:29:21;;;;;;;;;;;46.00;63.90;;;;;;5090258;28;20055;-67
2021/06/17 10:32:50;;;;;;;4.72;3.53;;;44.30;64.40;;;;;;5072315;28;19908;-69
2021/06/17 10:36:16;;;;;;;4.22;3.67;;;43.60;64.30;;;;;;5089569;28;20143;-68
2021/06/17 10:39:21;;;;;;;8.20;4.22;;;44.40;62.50;;;;;;5091356;28;20047;-68
2021/06/17 10:42:24;;;;;;;6.43;3.22;;;42.90;63.30;;;;;;5091944;28;20497;-68
2021/06/17 10:45:45;;;;;;;5.82;3.60;;;44.50;62.90;;;;;;5088964;28;20047;-68
2021/06/17 10:48:49;;;;;;;3.75;3.40;;;45.30;63.80;;;;;;5075596;28;20051;-68
2021/06/17 10:52:24;;;;;;;5.45;3.50;;;44.80;62.10;;;;;;5091004;28;20047;-68
2021/06/17 10:55:28;;;;;;;7.43;3.47;;;42.70;61.90;;;;;;5081381;28;20046;-69
2021/06/17 10:58:43;;;;;;;7.13;3.72;;;38.90;62.60;;;;;;5088192;28;20047;-68
2021/06/17 11:01:47;;;;;;;4.40;3.95;;;39.40;65.20;;;;;;5076780;28;20048;-68
2021/06/17 11:04:52;;;;;;;7.43;3.28;;;39.20;65.30;;;;;;5085003;28;20058;-68
2021/06/17 11:08:14;;;;;;;7.55;3.58;;;41.40;64.20;;;;;;5087682;28;20097;-68
2021/06/17 11:11:29;;;;;;;4.55;3.72;;;42.50;63.80;;;;;;5084332;28;20043;-69
2021/06/17 11:14:41;;;;;;;6.00;3.65;;;43.00;63.40;;;;;;5095756;28;20039;-68
2021/06/17 11:17:45;;;;;;;5.75;3.78;;;42.80;62.50;;;;;;5089938;28;20498;-70
2021/06/17 11:20:50;;;;;;;5.80;3.60;;;42.30;63.50;;;;;;5085442;28;20043;-69
2021/06/17 11:23:55;;;;;;;5.93;4.07;;;43.30;63.90;;;;;;5089822;28;20047;-69
2021/06/17 11:27:01;;;;;;;5.20;3.42;;;41.90;63.80;;;;;;5086642;28;20051;-68
2021/06/17 11:30:06;;;;;;;5.63;3.42;;;43.10;64.50;;;;;;5083806;28;20051;-70
2021/06/17 11:33:19;;;;;;;6.40;3.50;;;43.90;63.80;;;;;;5081948;28;20044;-69
2021/06/17 11:36:24;;;;;;;6.60;3.95;;;44.10;62.10;;;;;;5089931;28;20050;-70
2021/06/17 11:39:31;;;;;;;5.32;3.90;;;44.40;61.90;;;;;;5087930;28;20044;-70
2021/06/17 11:42:36;;;;;;;10.20;3.70;;;44.70;62.30;;;;;;5065306;28;20059;-69
2021/06/17 11:45:41;;;;;;;6.95;3.83;;;44.60;62.20;;;;;;5069237;28;20047;-69
2021/06/17 11:48:51;;;;;;;4.25;3.50;;;44.70;61.00;;;;;;5074809;28;20043;-69
2021/06/17 11:51:55;;;;;;;;;;;44.80;60.70;;;;;;5077786;28;20518;-68
2021/06/17 11:55:03;;;;;;;3.90;3.50;;;44.00;61.70;;;;;;5080978;28;19908;-68
2021/06/17 11:58:08;;;;;;;9.38;4.57;;;43.60;63.50;;;;;;5074247;28;20512;-68
2021/06/17 12:01:13;;;;;;;5.35;4.03;;;43.30;63.20;;;;;;5072843;28;20063;-69
2021/06/17 12:04:17;;;;;;;4.60;4.20;;;43.50;63.50;;;;;;5069080;28;20031;-70
2021/06/17 12:07:30;;;;;;;8.00;4.57;;;43.20;62.50;;;;;;5073278;28;20047;-69
2021/06/17 12:10:35;;;;;;;7.32;4.20;;;42.60;63.50;;;;;;5080558;28;20506;-67
2021/06/17 12:13:49;;;;;;;11.13;4.70;;;42.30;63.50;;;;;;5085831;28;20055;-69
2021/06/17 12:16:57;;;;;;;10.20;4.38;;;42.10;64.60;;;;;;5081540;28;20036;-69
2021/06/17 12:20:18;;;;;;;5.63;4.28;;;42.50;64.40;;;;;;5084856;28;20042;-70
2021/06/17 12:23:24;;;;;;;5.65;4.63;;;43.10;63.40;;;;;;5086244;28;20058;-68
2021/06/17 12:26:31;;;;;;;5.22;4.50;;;42.90;64.20;;;;;;5081957;28;20039;-69
2021/06/17 12:29:35;;;;;;;12.77;4.40;;;42.50;63.80;;;;;;5074212;28;20047;-69
2021/06/17 12:32:39;;;;;;;6.40;4.50;;;42.10;64.00;;;;;;5085476;28;20046;-67
2021/06/17 12:35:54;;;;;;;6.80;4.57;;;39.90;63.70;;;;;;5084892;28;20055;-67
2021/06/17 12:39:15;;;;;;;5.00;4.40;;;38.50;69.80;;;;;;5086907;28;20043;-68
2021/06/17 12:42:21;;;;;;;5.15;4.63;;;38.30;68.30;;;;;;5087634;28;20039;-67
2021/06/17 12:45:26;;;;;;;6.88;4.88;;;39.20;68.60;;;;;;5086986;28;20419;-68
2021/06/17 12:49:16;;;;;;;4.88;4.38;;;39.80;68.80;;;;;;5078537;28;20044;-68
2021/06/17 12:52:10;;;;;;;5.30;4.80;;;40.10;68.60;;;;;;5085528;28;20106;-68
2021/06/17 12:55:15;;;;;;;7.32;4.70;;;40.20;67.90;;;;;;5079540;28;20055;-68
2021/06/17 12:58:20;;;;;;;7.47;4.70;;;40.20;68.60;;;;;;5081072;28;20067;-68
2021/06/17 13:01:43;;;;;;;5.75;4.88;;;40.40;67.50;;;;;;5085283;28;20390;-69
2021/06/17 13:05:05;;;;;;;5.07;4.57;;;38.90;67.00;;;;;;5086484;28;20035;-68
2021/06/17 13:08:13;;;;;;;7.03;4.78;;;38.90;69.00;;;;;;5083677;28;20028;-69
2021/06/17 13:11:33;;;;;;;9.88;4.82;;;39.10;67.50;;;;;;5084556;28;20038;-69
2021/06/17 13:14:58;;;;;;;6.55;5.13;;;39.40;66.30;;;;;;5084993;28;20047;-68
2021/06/17 13:18:09;;;;;;;9.20;5.13;;;39.20;66.40;;;;;;5086148;28;20391;-69
2021/06/17 13:21:14;;;;;;;5.68;4.75;;;39.30;68.10;;;;;;5086550;28;20054;-68
2021/06/17 13:24:20;;;;;;;8.43;4.65;;;39.20;66.50;;;;;;5083385;28;20767;-68
2021/06/17 13:27:28;;;;;;;7.68;4.50;;;39.30;67.30;;;;;;5082772;28;20023;-69
2021/06/17 13:30:35;;;;;;;4.75;4.13;;;39.90;67.50;;;;;;5089774;28;20035;-69
2021/06/17 13:33:39;;;;;;;5.32;4.07;;;40.40;66.00;;;;;;5086133;28;20039;-68
2021/06/17 13:36:43;;;;;;;7.00;4.53;;;40.20;65.30;;;;;;5087636;28;20526;-68
2021/06/17 13:39:48;;;;;;;6.03;4.18;;;39.50;67.10;;;;;;5089512;28;20054;-68
2021/06/17 13:42:59;;;;;;;8.70;4.60;;;39.30;66.10;;;;;;5080016;28;20395;-68
2021/06/17 13:46:03;;;;;;;5.97;5.13;;;36.60;70.50;;;;;;5084971;28;20301;-67
2021/06/17 13:49:08;;;;;;;5.10;4.60;;;35.10;73.60;;;;;;5069016;28;20055;-67
2021/06/17 13:52:12;;;;;;;5.35;4.78;;;36.40;71.60;;;;;;5073838;28;20561;-67
2021/06/17 13:55:17;;;;;;;10.13;4.90;;;36.30;72.40;;;;;;5086117;28;20597;-69
2021/06/17 13:58:24;;;;;;;6.28;4.90;;;35.80;71.10;;;;;;5087715;28;20498;-68
2021/06/17 14:01:28;;;;;;;13.02;5.47;;;33.80;72.90;;;;;;5086961;28;20411;-68
2021/06/17 14:04:33;;;;;;;9.75;4.85;;;34.00;75.10;;;;;;5089428;28;20047;-68
2021/06/17 14:07:38;;;;;;;5.25;4.28;;;34.80;73.20;;;;;;5089025;28;20505;-68
2021/06/17 14:10:42;;;;;;;6.43;4.45;;;35.30;73.10;;;;;;5088933;28;20051;-68
2021/06/17 14:13:46;;;;;;;6.97;4.53;;;35.40;71.50;;;;;;5083561;28;20030;-67
2021/06/17 14:16:52;;;;;;;8.05;4.57;;;35.60;69.60;;;;;;5091492;28;20063;-68
2021/06/17 14:19:56;;;;;;;7.20;4.65;;;35.50;69.30;;;;;;5085164;28;20051;-68
2021/06/17 14:23:01;;;;;;;4.88;4.38;;;35.40;70.30;;;;;;5080384;28;20395;-69
2021/06/17 14:26:05;;;;;;;5.43;4.60;;;35.30;70.40;;;;;;5091590;28;20502;-68
2021/06/17 14:29:09;;;;;;;9.55;4.70;;;35.00;72.10;;;;;;5091102;28;20043;-68
2021/06/17 14:32:16;;;;;;;5.75;4.43;;;34.80;72.90;;;;;;5077853;28;20035;-68
2021/06/17 14:35:20;;;;;;;6.45;4.63;;;34.40;75.00;;;;;;5076473;28;20043;-68
2021/06/17 14:38:24;;;;;;;6.07;4.75;;;34.10;74.30;;;;;;5091389;28;20481;-69
2021/06/17 14:41:28;;;;;;;7.88;4.75;;;33.90;74.30;;;;;;5079326;28;20514;-69
2021/06/17 14:44:33;;;;;;;11.77;5.70;;;33.80;76.10;;;;;;5081888;28;20055;-68
2021/06/17 14:47:37;;;;;;;11.65;6.22;;;33.70;76.10;;;;;;5076214;28;20066;-69
2021/06/17 14:50:41;;;;;;;8.27;5.30;;;33.70;76.10;;;;;;5080292;28;20043;-68
2021/06/17 14:53:46;;;;;;;7.65;5.00;;;33.30;78.00;;;;;;5084716;28;20047;-68
2021/06/17 14:56:52;;;;;;;7.10;4.55;;;33.30;75.40;;;;;;5083451;28;20643;-68
2021/06/17 14:59:58;;;;;;;5.25;4.60;;;33.40;75.20;;;;;;5084451;28;20055;-68
2021/06/17 15:03:04;;;;;;;8.90;5.55;;;33.60;74.50;;;;;;5087786;28;20048;-69
2021/06/17 15:06:08;;;;;;;11.80;5.55;;;33.80;77.80;;;;;;5091235;28;20039;-69
2021/06/17 15:09:13;;;;;;;6.50;4.97;;;34.10;77.40;;;;;;5086088;28;20501;-70
2021/06/17 15:12:19;;;;;;;11.52;4.70;;;34.70;76.30;;;;;;5079878;28;20062;-69
2021/06/17 15:15:25;;;;;;;6.22;4.60;;;35.10;73.30;;;;;;5080547;28;20050;-70
2021/06/17 15:18:31;;;;;;;6.47;4.18;;;35.60;72.30;;;;;;5090231;28;20398;-68
2021/06/17 15:21:35;;;;;;;9.88;4.72;;;36.00;71.00;;;;;;5081230;28;20044;-71
2021/06/17 15:24:40;;;;;;;9.02;4.72;;;35.90;71.50;;;;;;5070264;28;20039;-69
2021/06/17 15:27:44;;;;;;;9.80;4.10;;;36.10;71.10;;;;;;5058631;28;20039;-68
2021/06/17 15:30:50;;;;;;;5.07;4.57;;;36.10;71.20;;;;;;5074151;28;20048;-69
2021/06/17 15:33:54;;;;;;;5.30;4.18;;;36.10;70.70;;;;;;5073812;28;20060;-68
2021/06/17 15:37:00;;;;;;;7.45;4.30;;;35.80;71.40;;;;;;5090129;28;20047;-68
2021/06/17 15:40:06;;;;;;;6.88;4.22;;;35.30;71.90;;;;;;5076932;28;20052;-67
2021/06/17 15:43:10;;;;;;;6.18;4.22;;;35.10;70.50;;;;;;5083942;28;20048;-68
2021/06/17 15:46:15;;;;;;;5.70;4.50;;;34.20;72.00;;;;;;5090453;28;20055;-69
2021/06/17 15:49:20;;;;;;;6.10;4.45;;;34.30;72.30;;;;;;5070012;28;20229;-68
2021/06/17 15:52:25;;;;;;;8.45;3.95;;;34.50;73.20;;;;;;5074894;28;20043;-69
2021/06/17 15:55:30;;;;;;;6.07;4.53;;;34.50;70.00;;;;;;5090183;28;20060;-69
2021/06/17 15:58:34;;;;;;;6.80;4.38;;;34.50;70.80;;;;;;5086365;28;20068;-69
2021/06/17 16:01:38;;;;;;;4.43;4.03;;;34.70;70.10;;;;;;5077975;28;20052;-69
2021/06/17 16:04:42;;;;;;;5.22;3.95;;;34.60;72.00;;;;;;5081286;28;20051;-68
2021/06/17 16:07:53;;;;;;;5.85;3.90;;;34.50;71.60;;;;;;5089594;28;20047;-68
2021/06/17 16:10:57;;;;;;;8.10;4.40;;;34.30;71.70;;;;;;5088015;28;20387;-68
2021/06/17 16:14:03;;;;;;;6.00;4.15;;;33.90;70.80;;;;;;5089594;28;20051;-68